sensor_id;sensor_type;location;lat;lon;timestamp;P1;durP1;ratioP1;P2;durP2;ratioP2
5995;SDS011;3026;53.612;7.278;2022-10-17T00:00:10;9.70;;;3.20;;
5995;SDS011;3026;53.612;7.278;2022-10-17T00:02:37;9.03;;;4.20;;
5995;SDS011;3026;53.612;7.278;2022-10-17T00:05:04;8.93;;;3.10;;
5995;SDS011;3026;53.612;7.278;2022-10-17T00:07:33;8.20;;;3.17;;
5995;SDS011;3026;53.612;7.278;2022-10-17T00:10:00;9.10;;;3.27;;
5995;SDS011;3026;53.612;7.278;2022-10-17T00:12:27;7.20;;;3.30;;
5995;SDS011;3026;53.612;7.278;2022-10-17T00:14:54;6.97;;;2.57;;
5995;SDS011;3026;53.612;7.278;2022-10-17T00:17:21;8.80;;;3.53;;
5995;SDS011;3026;53.612;7.278;2022-10-17T00:19:48;10.50;;;2.93;;
5995;SDS011;3026;53.612;7.278;2022-10-17T00:22:15;10.10;;;3.20;;
5995;SDS011;3026;53.612;7.278;2022-10-17T00:24:43;9.33;;;2.87;;
5995;SDS011;3026;53.612;7.278;2022-10-17T00:27:11;11.23;;;3.10;;
5995;SDS011;3026;53.612;7.278;2022-10-17T00:29:38;7.40;;;3.33;;
5995;SDS011;3026;53.612;7.278;2022-10-17T00:32:05;7.70;;;3.27;;
5995;SDS011;3026;53.612;7.278;2022-10-17T00:34:31;6.60;;;2.53;;
5995;SDS011;3026;53.612;7.278;2022-10-17T00:36:58;6.43;;;2.87;;
5995;SDS011;3026;53.612;7.278;2022-10-17T00:39:25;10.43;;;2.83;;
5995;SDS011;3026;53.612;7.278;2022-10-17T00:41:54;8.27;;;2.70;;
5995;SDS011;3026;53.612;7.278;2022-10-17T00:47:24;9.07;;;2.40;;
5995;SDS011;3026;53.612;7.278;2022-10-17T00:49:52;6.10;;;2.30;;
5995;SDS011;3026;53.612;7.278;2022-10-17T00:52:19;7.87;;;3.00;;
5995;SDS011;3026;53.612;7.278;2022-10-17T00:54:50;9.33;;;2.70;;
5995;SDS011;3026;53.612;7.278;2022-10-17T00:57:23;7.13;;;2.40;;
5995;SDS011;3026;53.612;7.278;2022-10-17T00:59:51;9.93;;;3.03;;
5995;SDS011;3026;53.612;7.278;2022-10-17T01:02:21;6.60;;;2.73;;
5995;SDS011;3026;53.612;7.278;2022-10-17T01:04:49;10.70;;;3.97;;
5995;SDS011;3026;53.612;7.278;2022-10-17T01:07:19;10.40;;;2.83;;
5995;SDS011;3026;53.612;7.278;2022-10-17T01:09:46;5.57;;;3.17;;
5995;SDS011;3026;53.612;7.278;2022-10-17T01:12:15;5.03;;;2.50;;
5995;SDS011;3026;53.612;7.278;2022-10-17T01:14:52;5.47;;;2.70;;
5995;SDS011;3026;53.612;7.278;2022-10-17T01:17:28;8.07;;;3.47;;
5995;SDS011;3026;53.612;7.278;2022-10-17T01:20:08;7.50;;;2.90;;
5995;SDS011;3026;53.612;7.278;2022-10-17T01:22:50;6.17;;;2.53;;
5995;SDS011;3026;53.612;7.278;2022-10-17T01:25:34;5.23;;;2.67;;
5995;SDS011;3026;53.612;7.278;2022-10-17T01:28:18;9.20;;;3.50;;
5995;SDS011;3026;53.612;7.278;2022-10-17T01:31:03;10.30;;;3.20;;
5995;SDS011;3026;53.612;7.278;2022-10-17T01:33:41;9.83;;;3.33;;
5995;SDS011;3026;53.612;7.278;2022-10-17T01:36:14;5.33;;;2.63;;
5995;SDS011;3026;53.612;7.278;2022-10-17T01:38:51;8.10;;;2.80;;
5995;SDS011;3026;53.612;7.278;2022-10-17T01:41:24;8.00;;;3.07;;
5995;SDS011;3026;53.612;7.278;2022-10-17T01:43:58;8.37;;;2.77;;
5995;SDS011;3026;53.612;7.278;2022-10-17T01:46:31;9.20;;;3.07;;
5995;SDS011;3026;53.612;7.278;2022-10-17T01:49:03;9.53;;;3.57;;
5995;SDS011;3026;53.612;7.278;2022-10-17T01:51:32;7.27;;;3.10;;
5995;SDS011;3026;53.612;7.278;2022-10-17T01:54:05;7.10;;;3.03;;
5995;SDS011;3026;53.612;7.278;2022-10-17T01:56:37;6.70;;;3.20;;
5995;SDS011;3026;53.612;7.278;2022-10-17T01:59:09;8.87;;;3.13;;
5995;SDS011;3026;53.612;7.278;2022-10-17T02:01:42;8.17;;;2.87;;
5995;SDS011;3026;53.612;7.278;2022-10-17T02:04:11;4.87;;;2.87;;
5995;SDS011;3026;53.612;7.278;2022-10-17T02:06:37;6.80;;;2.97;;
5995;SDS011;3026;53.612;7.278;2022-10-17T02:09:18;6.50;;;3.10;;
5995;SDS011;3026;53.612;7.278;2022-10-17T02:11:49;7.40;;;2.63;;
5995;SDS011;3026;53.612;7.278;2022-10-17T02:14:29;13.07;;;3.00;;
5995;SDS011;3026;53.612;7.278;2022-10-17T02:17:10;8.37;;;3.07;;
5995;SDS011;3026;53.612;7.278;2022-10-17T02:19:49;11.53;;;3.20;;
5995;SDS011;3026;53.612;7.278;2022-10-17T02:22:28;7.17;;;3.27;;
5995;SDS011;3026;53.612;7.278;2022-10-17T02:25:07;8.37;;;3.47;;
5995;SDS011;3026;53.612;7.278;2022-10-17T02:27:41;5.00;;;2.57;;
5995;SDS011;3026;53.612;7.278;2022-10-17T02:30:14;9.00;;;3.67;;
5995;SDS011;3026;53.612;7.278;2022-10-17T02:32:51;11.97;;;3.03;;
5995;SDS011;3026;53.612;7.278;2022-10-17T02:35:24;6.83;;;2.73;;
5995;SDS011;3026;53.612;7.278;2022-10-17T02:37:56;10.07;;;2.60;;
5995;SDS011;3026;53.612;7.278;2022-10-17T02:40:25;10.53;;;2.83;;
5995;SDS011;3026;53.612;7.278;2022-10-17T02:42:55;6.83;;;2.47;;
5995;SDS011;3026;53.612;7.278;2022-10-17T02:45:25;7.97;;;2.93;;
5995;SDS011;3026;53.612;7.278;2022-10-17T02:47:56;8.97;;;2.73;;
5995;SDS011;3026;53.612;7.278;2022-10-17T02:50:30;8.00;;;2.70;;
5995;SDS011;3026;53.612;7.278;2022-10-17T02:53:05;9.77;;;2.60;;
5995;SDS011;3026;53.612;7.278;2022-10-17T02:55:38;6.80;;;2.80;;
5995;SDS011;3026;53.612;7.278;2022-10-17T02:58:10;5.77;;;2.80;;
5995;SDS011;3026;53.612;7.278;2022-10-17T03:00:41;6.43;;;2.67;;
5995;SDS011;3026;53.612;7.278;2022-10-17T03:03:21;5.30;;;2.30;;
5995;SDS011;3026;53.612;7.278;2022-10-17T03:05:50;5.10;;;2.40;;
5995;SDS011;3026;53.612;7.278;2022-10-17T03:08:17;5.23;;;2.27;;
5995;SDS011;3026;53.612;7.278;2022-10-17T03:10:44;5.00;;;2.47;;
5995;SDS011;3026;53.612;7.278;2022-10-17T03:13:11;5.17;;;2.80;;
5995;SDS011;3026;53.612;7.278;2022-10-17T03:15:38;8.50;;;2.90;;
5995;SDS011;3026;53.612;7.278;2022-10-17T03:18:05;5.70;;;3.10;;
5995;SDS011;3026;53.612;7.278;2022-10-17T03:20:34;5.67;;;2.77;;
5995;SDS011;3026;53.612;7.278;2022-10-17T03:23:01;5.33;;;2.60;;
5995;SDS011;3026;53.612;7.278;2022-10-17T03:25:28;7.53;;;2.90;;
5995;SDS011;3026;53.612;7.278;2022-10-17T03:27:56;4.73;;;2.60;;
5995;SDS011;3026;53.612;7.278;2022-10-17T03:30:23;7.97;;;3.17;;
5995;SDS011;3026;53.612;7.278;2022-10-17T03:32:50;5.37;;;2.87;;
5995;SDS011;3026;53.612;7.278;2022-10-17T03:35:17;6.87;;;2.63;;
5995;SDS011;3026;53.612;7.278;2022-10-17T03:37:46;6.57;;;2.50;;
5995;SDS011;3026;53.612;7.278;2022-10-17T03:40:13;6.80;;;2.77;;
5995;SDS011;3026;53.612;7.278;2022-10-17T03:42:39;8.60;;;3.80;;
5995;SDS011;3026;53.612;7.278;2022-10-17T03:45:07;5.70;;;3.17;;
5995;SDS011;3026;53.612;7.278;2022-10-17T03:47:34;5.20;;;2.90;;
5995;SDS011;3026;53.612;7.278;2022-10-17T03:50:01;4.87;;;2.50;;
5995;SDS011;3026;53.612;7.278;2022-10-17T03:52:29;7.30;;;2.70;;
5995;SDS011;3026;53.612;7.278;2022-10-17T03:54:57;5.33;;;2.47;;
5995;SDS011;3026;53.612;7.278;2022-10-17T03:57:24;3.83;;;2.67;;
5995;SDS011;3026;53.612;7.278;2022-10-17T03:59:51;6.53;;;2.40;;
5995;SDS011;3026;53.612;7.278;2022-10-17T04:02:17;5.07;;;2.93;;
5995;SDS011;3026;53.612;7.278;2022-10-17T04:04:44;3.67;;;2.70;;
5995;SDS011;3026;53.612;7.278;2022-10-17T04:07:11;5.13;;;2.60;;
5995;SDS011;3026;53.612;7.278;2022-10-17T04:09:38;3.70;;;2.87;;
5995;SDS011;3026;53.612;7.278;2022-10-17T04:12:07;5.07;;;3.13;;
5995;SDS011;3026;53.612;7.278;2022-10-17T04:14:33;5.33;;;3.00;;
5995;SDS011;3026;53.612;7.278;2022-10-17T04:17:01;6.40;;;2.90;;
5995;SDS011;3026;53.612;7.278;2022-10-17T04:19:28;2.97;;;2.67;;
5995;SDS011;3026;53.612;7.278;2022-10-17T04:21:55;7.27;;;3.47;;
5995;SDS011;3026;53.612;7.278;2022-10-17T04:24:22;7.13;;;3.03;;
5995;SDS011;3026;53.612;7.278;2022-10-17T04:26:49;7.47;;;2.73;;
5995;SDS011;3026;53.612;7.278;2022-10-17T04:29:18;9.80;;;3.03;;
5995;SDS011;3026;53.612;7.278;2022-10-17T04:31:45;5.03;;;3.17;;
5995;SDS011;3026;53.612;7.278;2022-10-17T04:34:12;4.53;;;3.10;;
5995;SDS011;3026;53.612;7.278;2022-10-17T04:36:39;6.77;;;2.97;;
5995;SDS011;3026;53.612;7.278;2022-10-17T04:39:06;11.53;;;3.03;;
5995;SDS011;3026;53.612;7.278;2022-10-17T04:41:33;3.83;;;3.13;;
5995;SDS011;3026;53.612;7.278;2022-10-17T04:44:00;4.67;;;3.23;;
5995;SDS011;3026;53.612;7.278;2022-10-17T04:46:29;4.77;;;3.47;;
5995;SDS011;3026;53.612;7.278;2022-10-17T04:48:56;4.10;;;3.23;;
5995;SDS011;3026;53.612;7.278;2022-10-17T04:51:23;3.43;;;3.10;;
5995;SDS011;3026;53.612;7.278;2022-10-17T04:53:50;3.77;;;3.47;;
5995;SDS011;3026;53.612;7.278;2022-10-17T04:56:18;7.40;;;3.90;;
5995;SDS011;3026;53.612;7.278;2022-10-17T04:58:47;6.37;;;4.00;;
5995;SDS011;3026;53.612;7.278;2022-10-17T05:01:14;4.30;;;3.70;;
5995;SDS011;3026;53.612;7.278;2022-10-17T05:06:52;10.97;;;4.00;;
5995;SDS011;3026;53.612;7.278;2022-10-17T05:09:19;5.37;;;3.53;;
5995;SDS011;3026;53.612;7.278;2022-10-17T05:11:46;6.87;;;4.27;;
5995;SDS011;3026;53.612;7.278;2022-10-17T05:14:14;6.70;;;4.00;;
5995;SDS011;3026;53.612;7.278;2022-10-17T05:16:41;5.57;;;4.03;;
5995;SDS011;3026;53.612;7.278;2022-10-17T05:19:09;6.53;;;4.30;;
5995;SDS011;3026;53.612;7.278;2022-10-17T05:21:37;9.90;;;4.70;;
5995;SDS011;3026;53.612;7.278;2022-10-17T05:24:06;6.63;;;4.43;;
5995;SDS011;3026;53.612;7.278;2022-10-17T05:26:34;9.50;;;4.40;;
5995;SDS011;3026;53.612;7.278;2022-10-17T05:29:01;7.83;;;4.10;;
5995;SDS011;3026;53.612;7.278;2022-10-17T05:31:29;8.90;;;4.50;;
5995;SDS011;3026;53.612;7.278;2022-10-17T05:33:58;5.43;;;4.43;;
5995;SDS011;3026;53.612;7.278;2022-10-17T05:36:33;5.20;;;4.70;;
5995;SDS011;3026;53.612;7.278;2022-10-17T05:39:00;9.47;;;5.33;;
5995;SDS011;3026;53.612;7.278;2022-10-17T05:41:27;8.47;;;5.17;;
5995;SDS011;3026;53.612;7.278;2022-10-17T05:43:54;12.37;;;5.40;;
5995;SDS011;3026;53.612;7.278;2022-10-17T05:46:21;9.80;;;5.23;;
5995;SDS011;3026;53.612;7.278;2022-10-17T05:48:48;6.90;;;5.57;;
5995;SDS011;3026;53.612;7.278;2022-10-17T05:51:15;7.63;;;5.73;;
5995;SDS011;3026;53.612;7.278;2022-10-17T05:53:44;7.67;;;5.60;;
5995;SDS011;3026;53.612;7.278;2022-10-17T05:56:11;7.27;;;5.40;;
5995;SDS011;3026;53.612;7.278;2022-10-17T05:58:39;6.87;;;5.53;;
5995;SDS011;3026;53.612;7.278;2022-10-17T06:01:07;7.23;;;5.93;;
5995;SDS011;3026;53.612;7.278;2022-10-17T06:03:35;7.57;;;5.40;;
5995;SDS011;3026;53.612;7.278;2022-10-17T06:06:02;11.20;;;6.17;;
5995;SDS011;3026;53.612;7.278;2022-10-17T06:08:43;9.53;;;7.50;;
5995;SDS011;3026;53.612;7.278;2022-10-17T06:11:11;8.03;;;6.37;;
5995;SDS011;3026;53.612;7.278;2022-10-17T06:13:38;8.43;;;5.90;;
5995;SDS011;3026;53.612;7.278;2022-10-17T06:16:06;12.77;;;6.23;;
5995;SDS011;3026;53.612;7.278;2022-10-17T06:18:33;8.00;;;5.87;;
5995;SDS011;3026;53.612;7.278;2022-10-17T06:21:02;13.10;;;7.03;;
5995;SDS011;3026;53.612;7.278;2022-10-17T06:23:30;7.10;;;6.40;;
5995;SDS011;3026;53.612;7.278;2022-10-17T06:25:59;9.03;;;6.77;;
5995;SDS011;3026;53.612;7.278;2022-10-17T06:28:26;7.10;;;6.40;;
5995;SDS011;3026;53.612;7.278;2022-10-17T06:30:54;6.83;;;6.13;;
5995;SDS011;3026;53.612;7.278;2022-10-17T06:33:21;7.47;;;6.40;;
5995;SDS011;3026;53.612;7.278;2022-10-17T06:35:52;8.43;;;6.27;;
5995;SDS011;3026;53.612;7.278;2022-10-17T06:38:19;9.13;;;6.73;;
5995;SDS011;3026;53.612;7.278;2022-10-17T06:40:46;7.13;;;6.43;;
5995;SDS011;3026;53.612;7.278;2022-10-17T06:43:15;8.67;;;6.90;;
5995;SDS011;3026;53.612;7.278;2022-10-17T06:45:42;10.10;;;7.13;;
5995;SDS011;3026;53.612;7.278;2022-10-17T06:48:14;7.50;;;6.67;;
5995;SDS011;3026;53.612;7.278;2022-10-17T06:50:44;8.87;;;7.10;;
5995;SDS011;3026;53.612;7.278;2022-10-17T06:53:11;11.93;;;6.73;;
5995;SDS011;3026;53.612;7.278;2022-10-17T06:55:38;8.83;;;7.03;;
5995;SDS011;3026;53.612;7.278;2022-10-17T06:58:07;8.23;;;6.77;;
5995;SDS011;3026;53.612;7.278;2022-10-17T07:00:36;8.00;;;6.93;;
5995;SDS011;3026;53.612;7.278;2022-10-17T07:03:04;8.67;;;7.53;;
5995;SDS011;3026;53.612;7.278;2022-10-17T07:05:31;9.53;;;7.63;;
5995;SDS011;3026;53.612;7.278;2022-10-17T07:08:03;12.57;;;8.33;;
5995;SDS011;3026;53.612;7.278;2022-10-17T07:10:30;8.37;;;7.57;;
5995;SDS011;3026;53.612;7.278;2022-10-17T07:13:02;9.53;;;7.53;;
5995;SDS011;3026;53.612;7.278;2022-10-17T07:15:30;10.40;;;8.00;;
5995;SDS011;3026;53.612;7.278;2022-10-17T07:17:59;10.30;;;8.27;;
5995;SDS011;3026;53.612;7.278;2022-10-17T07:20:26;10.27;;;7.87;;
5995;SDS011;3026;53.612;7.278;2022-10-17T07:22:53;9.90;;;8.40;;
5995;SDS011;3026;53.612;7.278;2022-10-17T07:25:23;10.53;;;7.63;;
5995;SDS011;3026;53.612;7.278;2022-10-17T07:27:50;10.07;;;7.77;;
5995;SDS011;3026;53.612;7.278;2022-10-17T07:30:18;10.83;;;7.43;;
5995;SDS011;3026;53.612;7.278;2022-10-17T07:32:46;8.60;;;7.80;;
5995;SDS011;3026;53.612;7.278;2022-10-17T07:35:14;8.43;;;7.53;;
5995;SDS011;3026;53.612;7.278;2022-10-17T07:37:41;10.03;;;8.13;;
5995;SDS011;3026;53.612;7.278;2022-10-17T07:40:09;9.27;;;8.00;;
5995;SDS011;3026;53.612;7.278;2022-10-17T07:42:37;9.73;;;8.50;;
5995;SDS011;3026;53.612;7.278;2022-10-17T07:45:04;12.50;;;8.63;;
5995;SDS011;3026;53.612;7.278;2022-10-17T07:47:33;10.47;;;8.23;;
5995;SDS011;3026;53.612;7.278;2022-10-17T07:50:00;12.33;;;8.30;;
5995;SDS011;3026;53.612;7.278;2022-10-17T07:52:30;10.67;;;7.63;;
5995;SDS011;3026;53.612;7.278;2022-10-17T07:54:59;8.87;;;7.97;;
5995;SDS011;3026;53.612;7.278;2022-10-17T07:57:26;9.57;;;7.87;;
5995;SDS011;3026;53.612;7.278;2022-10-17T07:59:53;8.30;;;7.47;;
5995;SDS011;3026;53.612;7.278;2022-10-17T08:02:20;9.60;;;7.70;;
5995;SDS011;3026;53.612;7.278;2022-10-17T08:04:48;8.60;;;7.70;;
5995;SDS011;3026;53.612;7.278;2022-10-17T08:07:15;10.13;;;7.50;;
5995;SDS011;3026;53.612;7.278;2022-10-17T08:09:45;12.47;;;8.57;;
5995;SDS011;3026;53.612;7.278;2022-10-17T08:12:14;11.90;;;7.87;;
5995;SDS011;3026;53.612;7.278;2022-10-17T08:14:50;9.27;;;7.67;;
5995;SDS011;3026;53.612;7.278;2022-10-17T08:17:17;8.50;;;7.60;;
5995;SDS011;3026;53.612;7.278;2022-10-17T08:19:43;9.77;;;7.83;;
5995;SDS011;3026;53.612;7.278;2022-10-17T08:22:10;8.47;;;7.50;;
5995;SDS011;3026;53.612;7.278;2022-10-17T08:24:37;11.50;;;7.80;;
5995;SDS011;3026;53.612;7.278;2022-10-17T08:27:10;12.37;;;7.93;;
5995;SDS011;3026;53.612;7.278;2022-10-17T08:29:37;10.13;;;7.67;;
5995;SDS011;3026;53.612;7.278;2022-10-17T08:32:05;9.73;;;8.10;;
5995;SDS011;3026;53.612;7.278;2022-10-17T08:34:33;11.37;;;8.00;;
5995;SDS011;3026;53.612;7.278;2022-10-17T08:37:00;13.00;;;8.77;;
5995;SDS011;3026;53.612;7.278;2022-10-17T08:39:27;11.43;;;7.70;;
5995;SDS011;3026;53.612;7.278;2022-10-17T08:41:58;11.10;;;7.83;;
5995;SDS011;3026;53.612;7.278;2022-10-17T08:44:48;13.17;;;7.93;;
5995;SDS011;3026;53.612;7.278;2022-10-17T08:47:26;12.63;;;8.63;;
5995;SDS011;3026;53.612;7.278;2022-10-17T08:50:00;10.83;;;7.87;;
5995;SDS011;3026;53.612;7.278;2022-10-17T08:52:31;10.03;;;7.87;;
5995;SDS011;3026;53.612;7.278;2022-10-17T08:57:38;10.73;;;7.93;;
5995;SDS011;3026;53.612;7.278;2022-10-17T09:00:11;9.93;;;7.37;;
5995;SDS011;3026;53.612;7.278;2022-10-17T09:02:46;12.57;;;7.57;;
5995;SDS011;3026;53.612;7.278;2022-10-17T09:05:27;10.83;;;8.13;;
5995;SDS011;3026;53.612;7.278;2022-10-17T09:08:05;12.33;;;8.47;;
5995;SDS011;3026;53.612;7.278;2022-10-17T09:10:51;8.57;;;7.47;;
5995;SDS011;3026;53.612;7.278;2022-10-17T09:13:29;12.10;;;8.07;;
5995;SDS011;3026;53.612;7.278;2022-10-17T09:16:21;11.87;;;7.13;;
5995;SDS011;3026;53.612;7.278;2022-10-17T09:19:00;9.23;;;7.30;;
5995;SDS011;3026;53.612;7.278;2022-10-17T09:21:35;10.77;;;7.80;;
5995;SDS011;3026;53.612;7.278;2022-10-17T09:24:09;9.37;;;7.40;;
5995;SDS011;3026;53.612;7.278;2022-10-17T09:26:40;11.80;;;7.67;;
5995;SDS011;3026;53.612;7.278;2022-10-17T09:29:13;10.33;;;8.07;;
5995;SDS011;3026;53.612;7.278;2022-10-17T09:31:46;10.10;;;7.23;;
5995;SDS011;3026;53.612;7.278;2022-10-17T09:34:17;11.57;;;7.23;;
5995;SDS011;3026;53.612;7.278;2022-10-17T09:36:44;13.90;;;7.30;;
5995;SDS011;3026;53.612;7.278;2022-10-17T09:39:11;7.33;;;6.57;;
5995;SDS011;3026;53.612;7.278;2022-10-17T09:41:42;8.30;;;7.00;;
5995;SDS011;3026;53.612;7.278;2022-10-17T09:44:14;10.63;;;7.53;;
5995;SDS011;3026;53.612;7.278;2022-10-17T09:46:49;9.57;;;7.10;;
5995;SDS011;3026;53.612;7.278;2022-10-17T09:49:30;9.27;;;7.10;;
5995;SDS011;3026;53.612;7.278;2022-10-17T09:52:04;10.07;;;6.70;;
5995;SDS011;3026;53.612;7.278;2022-10-17T09:54:41;11.47;;;7.53;;
5995;SDS011;3026;53.612;7.278;2022-10-17T10:00:57;10.30;;;7.70;;
5995;SDS011;3026;53.612;7.278;2022-10-17T10:03:43;10.73;;;7.50;;
5995;SDS011;3026;53.612;7.278;2022-10-17T10:06:12;9.93;;;7.57;;
5995;SDS011;3026;53.612;7.278;2022-10-17T10:08:47;10.17;;;7.40;;
5995;SDS011;3026;53.612;7.278;2022-10-17T10:11:15;10.03;;;7.53;;
5995;SDS011;3026;53.612;7.278;2022-10-17T10:13:43;13.57;;;8.50;;
5995;SDS011;3026;53.612;7.278;2022-10-17T10:16:17;9.93;;;7.10;;
5995;SDS011;3026;53.612;7.278;2022-10-17T10:18:50;18.13;;;7.77;;
5995;SDS011;3026;53.612;7.278;2022-10-17T10:21:18;9.87;;;6.67;;
5995;SDS011;3026;53.612;7.278;2022-10-17T10:24:01;11.10;;;7.60;;
5995;SDS011;3026;53.612;7.278;2022-10-17T10:26:33;13.53;;;7.03;;
5995;SDS011;3026;53.612;7.278;2022-10-17T10:29:05;8.27;;;7.30;;
5995;SDS011;3026;53.612;7.278;2022-10-17T10:31:45;7.70;;;6.90;;
5995;SDS011;3026;53.612;7.278;2022-10-17T10:34:17;13.23;;;7.60;;
5995;SDS011;3026;53.612;7.278;2022-10-17T10:36:52;13.83;;;9.00;;
5995;SDS011;3026;53.612;7.278;2022-10-17T10:39:29;13.43;;;7.57;;
5995;SDS011;3026;53.612;7.278;2022-10-17T10:42:01;8.20;;;6.80;;
5995;SDS011;3026;53.612;7.278;2022-10-17T10:44:31;11.40;;;7.77;;
5995;SDS011;3026;53.612;7.278;2022-10-17T10:47:06;10.17;;;7.13;;
5995;SDS011;3026;53.612;7.278;2022-10-17T10:49:36;8.07;;;7.17;;
5995;SDS011;3026;53.612;7.278;2022-10-17T10:52:04;9.20;;;7.47;;
5995;SDS011;3026;53.612;7.278;2022-10-17T10:54:42;9.03;;;7.00;;
5995;SDS011;3026;53.612;7.278;2022-10-17T10:57:16;7.87;;;7.07;;
5995;SDS011;3026;53.612;7.278;2022-10-17T11:00:03;11.13;;;7.97;;
5995;SDS011;3026;53.612;7.278;2022-10-17T11:03:54;9.17;;;6.53;;
5995;SDS011;3026;53.612;7.278;2022-10-17T11:06:32;11.37;;;7.63;;
5995;SDS011;3026;53.612;7.278;2022-10-17T11:09:17;9.47;;;7.33;;
5995;SDS011;3026;53.612;7.278;2022-10-17T11:11:53;8.00;;;7.17;;
5995;SDS011;3026;53.612;7.278;2022-10-17T11:14:39;11.83;;;6.73;;
5995;SDS011;3026;53.612;7.278;2022-10-17T11:17:24;7.97;;;6.83;;
5995;SDS011;3026;53.612;7.278;2022-10-17T11:20:02;8.47;;;7.37;;
5995;SDS011;3026;53.612;7.278;2022-10-17T11:22:51;8.60;;;7.10;;
5995;SDS011;3026;53.612;7.278;2022-10-17T11:25:42;9.60;;;7.17;;
5995;SDS011;3026;53.612;7.278;2022-10-17T11:28:11;10.20;;;6.77;;
5995;SDS011;3026;53.612;7.278;2022-10-17T11:30:41;11.57;;;7.67;;
5995;SDS011;3026;53.612;7.278;2022-10-17T11:33:14;10.80;;;7.53;;
5995;SDS011;3026;53.612;7.278;2022-10-17T11:35:46;9.53;;;6.93;;
5995;SDS011;3026;53.612;7.278;2022-10-17T11:38:17;9.67;;;6.90;;
5995;SDS011;3026;53.612;7.278;2022-10-17T11:40:52;9.00;;;6.77;;
5995;SDS011;3026;53.612;7.278;2022-10-17T11:43:25;9.53;;;6.80;;
5995;SDS011;3026;53.612;7.278;2022-10-17T11:45:55;10.70;;;7.50;;
5995;SDS011;3026;53.612;7.278;2022-10-17T11:48:27;10.83;;;7.10;;
5995;SDS011;3026;53.612;7.278;2022-10-17T11:51:06;13.60;;;8.63;;
5995;SDS011;3026;53.612;7.278;2022-10-17T11:53:42;17.03;;;9.43;;
5995;SDS011;3026;53.612;7.278;2022-10-17T11:56:14;12.97;;;8.73;;
5995;SDS011;3026;53.612;7.278;2022-10-17T11:58:49;9.33;;;7.67;;
5995;SDS011;3026;53.612;7.278;2022-10-17T12:01:31;13.23;;;7.83;;
5995;SDS011;3026;53.612;7.278;2022-10-17T12:04:06;12.37;;;7.40;;
5995;SDS011;3026;53.612;7.278;2022-10-17T12:06:48;11.17;;;7.93;;
5995;SDS011;3026;53.612;7.278;2022-10-17T12:09:26;11.97;;;7.30;;
5995;SDS011;3026;53.612;7.278;2022-10-17T12:12:01;11.37;;;7.63;;
5995;SDS011;3026;53.612;7.278;2022-10-17T12:14:36;11.27;;;7.30;;
5995;SDS011;3026;53.612;7.278;2022-10-17T12:17:08;11.73;;;7.50;;
5995;SDS011;3026;53.612;7.278;2022-10-17T12:20:30;10.40;;;7.70;;
5995;SDS011;3026;53.612;7.278;2022-10-17T12:23:01;8.90;;;7.63;;
5995;SDS011;3026;53.612;7.278;2022-10-17T12:25:52;10.33;;;7.63;;
5995;SDS011;3026;53.612;7.278;2022-10-17T12:28:25;10.07;;;8.03;;
5995;SDS011;3026;53.612;7.278;2022-10-17T12:30:56;9.87;;;7.50;;
5995;SDS011;3026;53.612;7.278;2022-10-17T12:33:32;12.87;;;8.90;;
5995;SDS011;3026;53.612;7.278;2022-10-17T12:42:30;10.17;;;7.53;;
5995;SDS011;3026;53.612;7.278;2022-10-17T12:44:58;11.37;;;7.87;;
5995;SDS011;3026;53.612;7.278;2022-10-17T12:47:35;10.57;;;8.33;;
5995;SDS011;3026;53.612;7.278;2022-10-17T12:53:04;11.60;;;8.17;;
5995;SDS011;3026;53.612;7.278;2022-10-17T12:55:37;9.30;;;5.67;;
5995;SDS011;3026;53.612;7.278;2022-10-17T12:58:10;7.57;;;5.47;;
5995;SDS011;3026;53.612;7.278;2022-10-17T13:00:40;8.63;;;4.80;;
5995;SDS011;3026;53.612;7.278;2022-10-17T13:03:10;6.70;;;5.10;;
5995;SDS011;3026;53.612;7.278;2022-10-17T13:05:41;7.17;;;5.43;;
5995;SDS011;3026;53.612;7.278;2022-10-17T13:08:14;6.03;;;5.20;;
5995;SDS011;3026;53.612;7.278;2022-10-17T13:10:45;6.83;;;5.43;;
5995;SDS011;3026;53.612;7.278;2022-10-17T13:13:19;8.10;;;6.97;;
5995;SDS011;3026;53.612;7.278;2022-10-17T13:15:54;9.77;;;6.73;;
5995;SDS011;3026;53.612;7.278;2022-10-17T13:19:18;11.73;;;7.43;;
5995;SDS011;3026;53.612;7.278;2022-10-17T13:21:48;7.90;;;6.77;;
5995;SDS011;3026;53.612;7.278;2022-10-17T13:24:33;9.30;;;7.27;;
5995;SDS011;3026;53.612;7.278;2022-10-17T13:27:06;9.50;;;7.13;;
5995;SDS011;3026;53.612;7.278;2022-10-17T13:29:48;7.33;;;6.60;;
5995;SDS011;3026;53.612;7.278;2022-10-17T13:32:17;8.43;;;6.70;;
5995;SDS011;3026;53.612;7.278;2022-10-17T13:34:48;8.73;;;6.83;;
5995;SDS011;3026;53.612;7.278;2022-10-17T13:37:35;8.60;;;7.70;;
5995;SDS011;3026;53.612;7.278;2022-10-17T13:40:05;9.77;;;6.73;;
5995;SDS011;3026;53.612;7.278;2022-10-17T13:42:41;10.30;;;7.50;;
5995;SDS011;3026;53.612;7.278;2022-10-17T13:45:12;7.83;;;7.03;;
5995;SDS011;3026;53.612;7.278;2022-10-17T13:47:54;9.27;;;6.60;;
5995;SDS011;3026;53.612;7.278;2022-10-17T13:50:26;8.30;;;6.83;;
5995;SDS011;3026;53.612;7.278;2022-10-17T13:53:05;7.37;;;5.83;;
5995;SDS011;3026;53.612;7.278;2022-10-17T13:55:33;8.77;;;6.00;;
5995;SDS011;3026;53.612;7.278;2022-10-17T13:58:13;8.70;;;5.77;;
5995;SDS011;3026;53.612;7.278;2022-10-17T14:00:46;7.07;;;5.57;;
5995;SDS011;3026;53.612;7.278;2022-10-17T14:03:22;8.20;;;5.97;;
5995;SDS011;3026;53.612;7.278;2022-10-17T14:06:06;7.43;;;4.80;;
5995;SDS011;3026;53.612;7.278;2022-10-17T14:08:38;8.33;;;5.00;;
5995;SDS011;3026;53.612;7.278;2022-10-17T14:11:16;6.87;;;4.43;;
5995;SDS011;3026;53.612;7.278;2022-10-17T14:13:52;6.80;;;4.97;;
5995;SDS011;3026;53.612;7.278;2022-10-17T14:16:21;9.77;;;4.83;;
5995;SDS011;3026;53.612;7.278;2022-10-17T14:18:58;5.87;;;4.50;;
5995;SDS011;3026;53.612;7.278;2022-10-17T14:21:27;5.50;;;4.97;;
5995;SDS011;3026;53.612;7.278;2022-10-17T14:24:11;6.40;;;5.23;;
5995;SDS011;3026;53.612;7.278;2022-10-17T14:26:47;5.67;;;5.00;;
5995;SDS011;3026;53.612;7.278;2022-10-17T14:29:22;5.40;;;4.23;;
5995;SDS011;3026;53.612;7.278;2022-10-17T14:32:01;8.67;;;4.10;;
5995;SDS011;3026;53.612;7.278;2022-10-17T14:34:34;5.23;;;3.23;;
5995;SDS011;3026;53.612;7.278;2022-10-17T14:37:09;6.03;;;3.60;;
5995;SDS011;3026;53.612;7.278;2022-10-17T14:39:37;5.00;;;3.80;;
5995;SDS011;3026;53.612;7.278;2022-10-17T14:42:04;5.57;;;4.17;;
5995;SDS011;3026;53.612;7.278;2022-10-17T14:44:32;10.83;;;6.80;;
5995;SDS011;3026;53.612;7.278;2022-10-17T14:47:01;7.70;;;4.47;;
5995;SDS011;3026;53.612;7.278;2022-10-17T14:49:32;6.57;;;4.97;;
5995;SDS011;3026;53.612;7.278;2022-10-17T14:55:53;6.13;;;5.50;;
5995;SDS011;3026;53.612;7.278;2022-10-17T14:58:23;5.43;;;4.90;;
5995;SDS011;3026;53.612;7.278;2022-10-17T15:00:55;5.40;;;4.60;;
5995;SDS011;3026;53.612;7.278;2022-10-17T15:03:29;6.17;;;4.17;;
5995;SDS011;3026;53.612;7.278;2022-10-17T15:05:56;6.87;;;4.50;;
5995;SDS011;3026;53.612;7.278;2022-10-17T15:10:57;4.73;;;4.27;;
5995;SDS011;3026;53.612;7.278;2022-10-17T15:13:24;6.57;;;4.93;;
5995;SDS011;3026;53.612;7.278;2022-10-17T15:15:51;4.77;;;4.37;;
5995;SDS011;3026;53.612;7.278;2022-10-17T15:18:19;4.60;;;3.83;;
5995;SDS011;3026;53.612;7.278;2022-10-17T15:20:45;6.80;;;4.30;;
5995;SDS011;3026;53.612;7.278;2022-10-17T15:23:12;7.43;;;3.80;;
5995;SDS011;3026;53.612;7.278;2022-10-17T15:25:39;5.60;;;3.90;;
5995;SDS011;3026;53.612;7.278;2022-10-17T15:28:10;5.20;;;3.97;;
5995;SDS011;3026;53.612;7.278;2022-10-17T15:30:38;5.97;;;3.40;;
5995;SDS011;3026;53.612;7.278;2022-10-17T15:33:05;7.47;;;4.07;;
5995;SDS011;3026;53.612;7.278;2022-10-17T15:35:32;4.33;;;3.57;;
5995;SDS011;3026;53.612;7.278;2022-10-17T15:38:11;6.10;;;3.60;;
5995;SDS011;3026;53.612;7.278;2022-10-17T15:40:42;5.97;;;3.47;;
5995;SDS011;3026;53.612;7.278;2022-10-17T15:43:20;9.03;;;3.43;;
5995;SDS011;3026;53.612;7.278;2022-10-17T15:45:49;5.13;;;3.43;;
5995;SDS011;3026;53.612;7.278;2022-10-17T15:48:17;4.87;;;3.00;;
5995;SDS011;3026;53.612;7.278;2022-10-17T15:50:49;5.70;;;3.00;;
5995;SDS011;3026;53.612;7.278;2022-10-17T15:53:15;4.23;;;2.80;;
5995;SDS011;3026;53.612;7.278;2022-10-17T15:55:44;4.00;;;2.90;;
5995;SDS011;3026;53.612;7.278;2022-10-17T15:59:02;3.20;;;2.90;;
5995;SDS011;3026;53.612;7.278;2022-10-17T16:01:31;5.17;;;3.20;;
5995;SDS011;3026;53.612;7.278;2022-10-17T16:03:59;4.40;;;3.20;;
5995;SDS011;3026;53.612;7.278;2022-10-17T16:06:28;4.57;;;3.30;;
5995;SDS011;3026;53.612;7.278;2022-10-17T16:08:55;5.20;;;3.33;;